createdAt,value
2018-06-05T00:03:08.355Z,26.13
2018-06-05T00:07:12.083Z,27.13
2018-06-05T00:11:15.777Z,25.90
2018-06-05T00:15:19.412Z,25.93
2018-06-05T00:19:23.079Z,30.53
2018-06-05T00:23:26.738Z,25.67
2018-06-05T00:27:30.492Z,23.43
2018-06-05T00:31:33.795Z,25.47
2018-06-05T00:35:37.471Z,27.10
2018-06-05T00:39:41.155Z,18.70
2018-06-05T00:43:44.828Z,18.73
2018-06-05T00:47:48.526Z,18.30
2018-06-05T00:52:03.462Z,20.87
2018-06-05T00:56:07.408Z,19.40
2018-06-05T01:00:11.116Z,23.37
2018-06-05T01:04:14.792Z,22.23
2018-06-05T01:08:18.497Z,23.33
2018-06-05T01:12:22.218Z,19.90
2018-06-05T01:16:25.960Z,25.30
2018-06-05T01:20:29.651Z,22.53
2018-06-05T01:24:33.321Z,23.37
2018-06-05T01:28:37.016Z,22.17
2018-06-05T01:32:40.639Z,22.07
2018-06-05T01:36:44.307Z,20.40
2018-06-05T01:40:47.972Z,21.43
2018-06-05T01:44:51.640Z,17.93
2018-06-05T01:48:55.331Z,22.30
2018-06-05T01:52:58.948Z,15.93
2018-06-05T01:57:02.701Z,19.17
2018-06-05T02:01:06.372Z,17.20
2018-06-05T02:05:10.120Z,18.43
2018-06-05T02:09:13.767Z,18.23
2018-06-05T02:13:17.432Z,16.73
2018-06-05T02:17:21.136Z,14.40
2018-06-05T02:21:24.912Z,16.27
2018-06-05T02:25:28.584Z,20.90
2018-06-05T02:29:32.219Z,16.27
2018-06-05T02:33:35.897Z,16.07
2018-06-05T02:37:39.671Z,16.10
2018-06-05T02:41:43.356Z,19.57
2018-06-05T02:45:47.027Z,18.83
2018-06-05T02:49:50.636Z,20.17
2018-06-05T02:53:54.295Z,18.77
2018-06-05T02:57:57.945Z,21.93
2018-06-05T03:02:01.639Z,19.00
2018-06-05T03:06:05.363Z,21.40
2018-06-05T03:10:09.014Z,21.80
2018-06-05T03:14:12.678Z,22.70
2018-06-05T03:18:16.360Z,18.17
2018-06-05T03:22:20.035Z,17.63
2018-06-05T03:26:23.726Z,17.70
2018-06-05T03:30:27.378Z,17.43
2018-06-05T03:34:31.039Z,19.13
2018-06-05T03:38:34.722Z,20.33
2018-06-05T03:42:38.400Z,17.00
2018-06-05T03:46:42.100Z,17.43
2018-06-05T03:50:45.746Z,19.67
2018-06-05T03:54:49.433Z,17.57
2018-06-05T03:58:53.112Z,23.57
2018-06-05T04:02:56.783Z,18.43
2018-06-05T04:07:00.510Z,19.73
2018-06-05T04:11:04.148Z,21.37
2018-06-05T04:15:07.896Z,18.47
2018-06-05T04:19:11.576Z,20.13
2018-06-05T04:23:15.331Z,20.73
2018-06-05T04:27:19.073Z,23.80
2018-06-05T04:31:22.714Z,21.37
2018-06-05T04:35:26.047Z,20.30
2018-06-05T04:39:29.771Z,22.57
2018-06-05T04:43:33.422Z,20.47
2018-06-05T04:47:37.150Z,16.93
2018-06-05T04:51:40.836Z,19.03
2018-06-05T04:55:44.506Z,22.53
2018-06-05T04:59:48.176Z,19.60
2018-06-05T05:03:51.850Z,20.03
2018-06-05T05:07:55.559Z,19.33
2018-06-05T05:11:59.213Z,16.00
2018-06-05T05:16:02.899Z,20.20
2018-06-05T05:20:06.664Z,18.00
2018-06-05T05:24:10.332Z,20.50
2018-06-05T05:28:14.024Z,22.70
2018-06-05T05:32:17.664Z,21.33
2018-06-05T05:36:21.329Z,19.03
2018-06-05T05:40:25.023Z,22.43
2018-06-05T05:44:28.703Z,19.37
2018-06-05T05:48:32.375Z,22.33
2018-06-05T05:52:36.029Z,25.40
2018-06-05T05:56:39.693Z,18.87
2018-06-05T06:00:43.383Z,21.30
2018-06-05T06:04:47.069Z,30.53
2018-06-05T06:08:50.785Z,20.37
2018-06-05T06:12:54.434Z,23.37
2018-06-05T06:16:58.107Z,19.53
2018-06-05T06:21:01.803Z,21.03
2018-06-05T06:25:05.718Z,19.23
2018-06-05T06:29:09.393Z,16.23
2018-06-05T06:33:13.038Z,20.33
2018-06-05T06:37:16.717Z,20.30
2018-06-05T06:41:20.429Z,23.90
2018-06-05T06:45:24.103Z,22.43
2018-06-05T06:49:27.775Z,18.77
2018-06-05T06:53:31.401Z,17.30
2018-06-05T06:57:35.102Z,15.37
2018-06-05T07:01:38.789Z,21.60
2018-06-05T07:05:42.517Z,17.63
2018-06-05T07:09:46.180Z,17.27
2018-06-05T07:13:49.844Z,20.43
2018-06-05T07:17:56.324Z,21.10
2018-06-05T07:22:00.018Z,17.90
2018-06-05T07:26:03.722Z,17.57
2018-06-05T07:30:07.509Z,19.83
2018-06-05T07:34:11.182Z,18.73
2018-06-05T07:38:14.860Z,20.20
2018-06-05T07:42:18.526Z,19.77
2018-06-05T07:46:22.217Z,21.03
2018-06-05T07:50:25.959Z,22.03
2018-06-05T07:54:30.337Z,21.00
2018-06-05T07:58:34.857Z,19.73
2018-06-05T08:02:38.552Z,20.17
2018-06-05T08:06:42.331Z,17.77
2018-06-05T08:10:46.056Z,16.93
2018-06-05T08:14:49.759Z,17.90
2018-06-05T08:18:53.435Z,17.53
2018-06-05T08:22:57.584Z,18.73
2018-06-05T08:27:01.268Z,18.67
2018-06-05T08:31:04.972Z,23.10
2018-06-05T08:35:08.691Z,15.47
2018-06-05T08:39:12.335Z,17.53
2018-06-05T08:43:15.991Z,18.00
2018-06-05T08:47:19.696Z,15.10
2018-06-05T08:51:23.361Z,11.50
2018-06-05T08:55:27.046Z,12.03
2018-06-05T08:59:30.659Z,11.87
2018-06-05T09:03:34.308Z,14.87
2018-06-05T09:07:38.028Z,15.07
2018-06-05T09:11:41.695Z,13.53
2018-06-05T09:15:45.352Z,14.70
2018-06-05T09:19:48.979Z,12.10
2018-06-05T09:23:52.658Z,13.57
2018-06-05T09:27:56.352Z,12.17
2018-06-05T09:32:00.013Z,13.60
2018-06-05T09:36:03.670Z,13.27
2018-06-05T09:40:07.308Z,14.40
2018-06-05T09:44:10.952Z,11.70
2018-06-05T09:48:14.610Z,14.93
2018-06-05T09:52:18.281Z,11.93
2018-06-05T09:56:22.004Z,12.77
2018-06-05T10:00:30.968Z,12.97
2018-06-05T10:04:34.634Z,12.80
2018-06-05T10:08:38.351Z,14.77
2018-06-05T10:12:42.004Z,13.33
2018-06-05T10:16:45.663Z,14.47
2018-06-05T10:20:49.305Z,14.53
2018-06-05T10:24:52.976Z,13.80
2018-06-05T10:28:56.611Z,14.73
2018-06-05T10:33:00.368Z,15.60
2018-06-05T10:37:04.021Z,14.97
2018-06-05T10:41:07.649Z,13.97
2018-06-05T10:45:11.433Z,12.43
2018-06-05T10:49:15.088Z,14.67
2018-06-05T10:53:18.731Z,13.77
2018-06-05T10:57:22.383Z,13.40
2018-06-05T11:01:25.995Z,11.43
2018-06-05T11:05:29.744Z,14.27
2018-06-05T11:09:33.411Z,17.67
2018-06-05T11:13:37.080Z,14.27
2018-06-05T11:17:40.729Z,11.43
2018-06-05T11:21:44.352Z,14.43
2018-06-05T11:25:48.025Z,14.83
2018-06-05T11:29:51.698Z,13.27
2018-06-05T11:33:55.385Z,14.03
2018-06-05T11:37:59.051Z,12.07
2018-06-05T11:42:02.693Z,11.90
2018-06-05T11:46:06.478Z,11.50
2018-06-05T11:50:10.142Z,11.57
2018-06-05T11:54:13.827Z,13.30
2018-06-05T11:58:17.455Z,9.87
2018-06-05T12:02:21.118Z,12.47
2018-06-05T12:06:24.796Z,11.20
2018-06-05T12:10:28.451Z,12.07
2018-06-05T12:14:32.101Z,14.97
2018-06-05T12:18:35.755Z,14.23
2018-06-05T12:22:39.390Z,12.87
2018-06-05T12:26:43.061Z,14.07
2018-06-05T12:30:46.729Z,12.90
2018-06-05T12:34:50.398Z,12.20
2018-06-05T12:38:54.046Z,12.97
2018-06-05T12:42:57.678Z,12.97
2018-06-05T12:47:01.336Z,15.67
2018-06-05T12:51:05.023Z,14.77
2018-06-05T12:55:08.765Z,14.17
2018-06-05T12:59:12.439Z,10.50
2018-06-05T13:03:16.088Z,14.47
2018-06-05T13:07:19.780Z,13.67
2018-06-05T13:11:23.478Z,13.70
2018-06-05T13:15:33.860Z,12.50
2018-06-05T13:19:37.508Z,14.03
2018-06-05T13:23:41.166Z,14.50
2018-06-05T13:27:44.818Z,14.40
2018-06-05T13:31:48.515Z,12.87
2018-06-05T13:35:52.208Z,12.03
2018-06-05T13:39:55.863Z,12.23
2018-06-05T13:43:59.545Z,13.67
2018-06-05T13:48:03.235Z,16.20
2018-06-05T13:52:06.940Z,14.60
2018-06-05T13:56:10.632Z,12.53
2018-06-05T14:00:14.324Z,16.10
2018-06-05T14:04:18.012Z,12.43
2018-06-05T14:08:21.720Z,12.50
2018-06-05T14:12:25.414Z,16.97
2018-06-05T14:16:29.088Z,13.13
2018-06-05T14:20:32.762Z,11.73
2018-06-05T14:24:36.441Z,14.93
2018-06-05T14:28:40.136Z,13.97
2018-06-05T14:32:43.782Z,13.33
2018-06-05T14:36:47.424Z,13.97
2018-06-05T14:40:51.071Z,15.80
2018-06-05T14:44:54.817Z,15.70
2018-06-05T14:48:58.533Z,18.67
2018-06-05T14:53:02.180Z,14.27
2018-06-05T14:57:06.025Z,14.30
2018-06-05T15:01:09.698Z,12.63
2018-06-05T15:05:13.380Z,20.83
2018-06-05T15:09:16.999Z,15.50
2018-06-05T15:13:20.715Z,15.63
2018-06-05T15:17:24.358Z,17.80
2018-06-05T15:21:28.013Z,15.83
2018-06-05T15:25:31.655Z,13.40
2018-06-05T15:29:35.264Z,17.13
2018-06-05T15:33:38.904Z,14.03
2018-06-05T15:37:42.552Z,14.73
2018-06-05T15:41:46.221Z,16.33
2018-06-05T15:45:49.891Z,17.33
2018-06-05T15:49:53.528Z,13.57
2018-06-05T15:53:57.172Z,17.60
2018-06-05T15:58:00.874Z,17.63
2018-06-05T16:02:04.562Z,17.03
2018-06-05T16:06:08.259Z,19.73
2018-06-05T16:10:11.981Z,12.47
2018-06-05T16:14:15.641Z,10.67
2018-06-05T16:18:19.295Z,12.37
2018-06-05T16:26:11.043Z,14.13
2018-06-05T16:30:14.653Z,15.63
2018-06-05T16:34:18.356Z,16.97
2018-06-05T16:38:22.032Z,14.03
2018-06-05T16:42:25.676Z,14.20
2018-06-05T16:46:29.310Z,13.20
2018-06-05T16:50:32.929Z,12.80
2018-06-05T16:54:36.580Z,15.53
2018-06-05T16:58:40.217Z,13.93
2018-06-05T17:02:43.973Z,14.23
2018-06-05T17:06:47.663Z,13.47
2018-06-05T17:10:51.259Z,13.57
2018-06-05T17:14:54.934Z,11.67
2018-06-05T17:18:58.569Z,14.50
2018-06-05T17:23:02.325Z,11.37
2018-06-05T17:27:06.021Z,14.77
2018-06-05T17:31:09.653Z,17.00
2018-06-05T17:35:13.345Z,14.50
2018-06-05T17:39:17.055Z,14.87
2018-06-05T17:43:20.708Z,14.33
2018-06-05T17:47:24.356Z,14.80
2018-06-05T17:51:28.000Z,10.13
2018-06-05T17:55:31.648Z,12.87
2018-06-05T17:59:35.300Z,12.60
2018-06-05T18:03:38.961Z,17.50
2018-06-05T18:07:42.704Z,16.63
2018-06-05T18:11:46.342Z,13.17
2018-06-05T18:15:50.011Z,9.67
2018-06-05T18:19:53.682Z,24.00
2018-06-05T18:23:57.331Z,12.83
2018-06-05T18:28:01.041Z,11.33
2018-06-05T18:32:04.718Z,13.93
2018-06-05T18:36:08.360Z,11.17
2018-06-05T18:40:12.011Z,12.63
2018-06-05T18:44:15.831Z,9.30
2018-06-05T18:48:19.472Z,15.43
2018-06-05T18:52:23.155Z,16.90
2018-06-05T18:56:26.789Z,13.57
2018-06-05T19:00:30.441Z,12.50
2018-06-05T19:04:34.132Z,10.60
2018-06-05T19:08:37.830Z,14.07
2018-06-05T19:12:41.500Z,13.43
2018-06-05T19:16:45.178Z,12.00
2018-06-05T19:20:48.845Z,10.90
2018-06-05T19:24:52.505Z,13.50
2018-06-05T19:28:56.171Z,10.60
2018-06-05T19:32:59.855Z,17.70
2018-06-05T19:37:03.483Z,12.43
2018-06-05T19:41:07.228Z,11.13
2018-06-05T19:45:11.224Z,10.57
2018-06-05T19:49:14.897Z,11.83
2018-06-05T19:53:18.547Z,14.20
2018-06-05T19:57:22.269Z,12.43
2018-06-05T20:01:25.918Z,11.40
2018-06-05T20:05:29.647Z,13.27
2018-06-05T20:09:33.284Z,15.37
2018-06-05T20:13:36.958Z,16.23
2018-06-05T20:17:40.692Z,18.33
2018-06-05T20:21:44.372Z,14.50
2018-06-05T20:25:48.043Z,13.50
2018-06-05T20:29:51.723Z,15.20
2018-06-05T20:33:55.388Z,14.27
2018-06-05T20:37:59.010Z,14.00
2018-06-05T20:42:02.678Z,17.03
2018-06-05T20:46:06.363Z,16.37
2018-06-05T20:50:10.037Z,14.63
2018-06-05T20:54:13.725Z,14.03
2018-06-05T20:58:17.344Z,20.47
2018-06-05T21:02:21.016Z,17.47
2018-06-05T21:06:24.734Z,13.80
2018-06-05T21:10:28.395Z,14.03
2018-06-05T21:14:32.085Z,15.50
2018-06-05T21:18:35.777Z,16.60
2018-06-05T21:22:39.422Z,18.80
2018-06-05T21:26:43.100Z,11.17
2018-06-05T21:30:46.753Z,13.97
2018-06-05T21:34:50.424Z,13.73
2018-06-05T21:38:54.149Z,14.20
2018-06-05T21:42:57.804Z,15.60
2018-06-05T21:47:01.461Z,14.93
2018-06-05T21:51:05.143Z,19.97
2018-06-05T21:55:08.876Z,11.33
2018-06-05T21:59:12.532Z,12.50
2018-06-05T22:03:16.159Z,13.30
2018-06-05T22:07:19.841Z,17.23
2018-06-05T22:11:23.538Z,16.37
2018-06-05T22:15:27.197Z,21.23
2018-06-05T22:19:30.860Z,14.40
2018-06-05T22:23:34.473Z,20.27
2018-06-05T22:27:38.218Z,17.13
2018-06-05T22:31:41.897Z,15.63
2018-06-05T22:35:45.545Z,13.60
2018-06-05T22:39:49.235Z,18.23
2018-06-05T22:43:52.864Z,13.10
2018-06-05T22:47:56.521Z,15.77
2018-06-05T22:52:00.263Z,17.90
2018-06-05T22:56:04.029Z,13.90
2018-06-05T23:00:07.757Z,15.53
2018-06-05T23:04:11.395Z,12.90
2018-06-05T23:08:15.089Z,13.90
2018-06-05T23:12:18.729Z,13.40
2018-06-05T23:16:22.400Z,19.10
2018-06-05T23:20:25.852Z,15.97
2018-06-05T23:24:29.459Z,17.67
2018-06-05T23:28:33.128Z,17.37
2018-06-05T23:32:36.794Z,18.20
2018-06-05T23:36:40.457Z,17.37
2018-06-05T23:40:44.148Z,18.33
2018-06-05T23:44:47.828Z,18.20
2018-06-05T23:48:51.480Z,15.17
2018-06-05T23:52:55.136Z,14.50
2018-06-05T23:56:58.783Z,19.93
